sensor_id;sensor_type;location;lat;lon;timestamp;P1;durP1;ratioP1;P2;durP2;ratioP2
22646;SDS011;11490;42.726;23.268;2023-03-03T00:00:28;3.53;;;3.22;;
22646;SDS011;11490;42.726;23.268;2023-03-03T00:02:54;4.43;;;4.03;;
22646;SDS011;11490;42.726;23.268;2023-03-03T00:05:25;4.22;;;3.67;;
22646;SDS011;11490;42.726;23.268;2023-03-03T00:07:50;3.47;;;3.08;;
22646;SDS011;11490;42.726;23.268;2023-03-03T00:10:16;4.95;;;3.47;;
22646;SDS011;11490;42.726;23.268;2023-03-03T00:12:46;4.10;;;3.30;;
22646;SDS011;11490;42.726;23.268;2023-03-03T00:15:13;4.38;;;4.00;;
22646;SDS011;11490;42.726;23.268;2023-03-03T00:17:39;5.47;;;3.33;;
22646;SDS011;11490;42.726;23.268;2023-03-03T00:23:13;4.43;;;3.53;;
22646;SDS011;11490;42.726;23.268;2023-03-03T00:25:45;4.47;;;4.00;;
22646;SDS011;11490;42.726;23.268;2023-03-03T00:28:17;3.90;;;3.10;;
22646;SDS011;11490;42.726;23.268;2023-03-03T00:30:44;4.28;;;3.30;;
22646;SDS011;11490;42.726;23.268;2023-03-03T00:33:28;5.15;;;4.10;;
22646;SDS011;11490;42.726;23.268;2023-03-03T00:36:21;5.53;;;4.38;;
22646;SDS011;11490;42.726;23.268;2023-03-03T00:41:54;4.63;;;4.00;;
22646;SDS011;11490;42.726;23.268;2023-03-03T00:44:41;5.72;;;3.15;;
22646;SDS011;11490;42.726;23.268;2023-03-03T00:52:35;4.57;;;4.07;;
22646;SDS011;11490;42.726;23.268;2023-03-03T00:55:03;5.68;;;4.28;;
22646;SDS011;11490;42.726;23.268;2023-03-03T00:57:29;5.53;;;4.05;;
22646;SDS011;11490;42.726;23.268;2023-03-03T00:59:55;4.10;;;3.58;;
22646;SDS011;11490;42.726;23.268;2023-03-03T01:02:21;6.88;;;4.30;;
22646;SDS011;11490;42.726;23.268;2023-03-03T01:04:50;5.35;;;3.85;;
22646;SDS011;11490;42.726;23.268;2023-03-03T01:07:17;4.95;;;3.55;;
22646;SDS011;11490;42.726;23.268;2023-03-03T01:09:43;5.28;;;4.20;;
22646;SDS011;11490;42.726;23.268;2023-03-03T01:12:09;5.05;;;4.10;;
22646;SDS011;11490;42.726;23.268;2023-03-03T01:14:35;5.00;;;3.85;;
22646;SDS011;11490;42.726;23.268;2023-03-03T01:17:01;5.50;;;3.95;;
22646;SDS011;11490;42.726;23.268;2023-03-03T01:19:27;3.45;;;3.15;;
22646;SDS011;11490;42.726;23.268;2023-03-03T01:21:53;4.90;;;4.10;;
22646;SDS011;11490;42.726;23.268;2023-03-03T01:24:18;4.60;;;3.97;;
22646;SDS011;11490;42.726;23.268;2023-03-03T01:26:44;5.63;;;4.53;;
22646;SDS011;11490;42.726;23.268;2023-03-03T01:29:09;4.80;;;4.20;;
22646;SDS011;11490;42.726;23.268;2023-03-03T01:31:34;4.68;;;3.75;;
22646;SDS011;11490;42.726;23.268;2023-03-03T01:34:00;8.00;;;4.88;;
22646;SDS011;11490;42.726;23.268;2023-03-03T01:36:26;4.47;;;3.63;;
22646;SDS011;11490;42.726;23.268;2023-03-03T01:38:53;4.10;;;3.60;;
22646;SDS011;11490;42.726;23.268;2023-03-03T01:41:18;7.53;;;3.95;;
22646;SDS011;11490;42.726;23.268;2023-03-03T01:43:46;5.75;;;3.78;;
22646;SDS011;11490;42.726;23.268;2023-03-03T01:48:57;5.20;;;3.83;;
22646;SDS011;11490;42.726;23.268;2023-03-03T01:51:37;4.00;;;3.28;;
22646;SDS011;11490;42.726;23.268;2023-03-03T01:54:17;3.80;;;3.40;;
22646;SDS011;11490;42.726;23.268;2023-03-03T01:56:49;4.25;;;3.55;;
22646;SDS011;11490;42.726;23.268;2023-03-03T01:59:18;6.00;;;4.07;;
22646;SDS011;11490;42.726;23.268;2023-03-03T02:01:47;5.15;;;4.28;;
22646;SDS011;11490;42.726;23.268;2023-03-03T02:04:13;5.97;;;4.43;;
22646;SDS011;11490;42.726;23.268;2023-03-03T02:06:41;5.60;;;3.75;;
22646;SDS011;11490;42.726;23.268;2023-03-03T02:09:21;4.13;;;3.17;;
22646;SDS011;11490;42.726;23.268;2023-03-03T02:11:57;8.18;;;5.13;;
22646;SDS011;11490;42.726;23.268;2023-03-03T02:14:27;4.97;;;3.95;;
22646;SDS011;11490;42.726;23.268;2023-03-03T02:16:52;5.07;;;3.88;;
22646;SDS011;11490;42.726;23.268;2023-03-03T02:22:23;6.35;;;4.38;;
22646;SDS011;11490;42.726;23.268;2023-03-03T02:25:13;5.30;;;4.80;;
22646;SDS011;11490;42.726;23.268;2023-03-03T02:27:46;4.10;;;3.65;;
22646;SDS011;11490;42.726;23.268;2023-03-03T02:30:16;3.22;;;2.90;;
22646;SDS011;11490;42.726;23.268;2023-03-03T02:32:44;4.15;;;3.33;;
22646;SDS011;11490;42.726;23.268;2023-03-03T02:35:29;4.65;;;3.40;;
22646;SDS011;11490;42.726;23.268;2023-03-03T02:38:16;5.85;;;3.75;;
22646;SDS011;11490;42.726;23.268;2023-03-03T02:46:20;6.53;;;4.38;;
22646;SDS011;11490;42.726;23.268;2023-03-03T02:48:46;4.30;;;3.78;;
22646;SDS011;11490;42.726;23.268;2023-03-03T02:51:11;4.93;;;3.75;;
22646;SDS011;11490;42.726;23.268;2023-03-03T02:53:37;5.63;;;3.97;;
22646;SDS011;11490;42.726;23.268;2023-03-03T02:56:02;4.60;;;3.80;;
22646;SDS011;11490;42.726;23.268;2023-03-03T02:58:28;7.20;;;4.57;;
22646;SDS011;11490;42.726;23.268;2023-03-03T03:00:54;4.13;;;3.67;;
22646;SDS011;11490;42.726;23.268;2023-03-03T03:03:20;5.82;;;3.50;;
22646;SDS011;11490;42.726;23.268;2023-03-03T03:05:46;4.18;;;3.78;;
22646;SDS011;11490;42.726;23.268;2023-03-03T03:08:11;4.03;;;3.63;;
22646;SDS011;11490;42.726;23.268;2023-03-03T03:10:36;6.60;;;3.78;;
22646;SDS011;11490;42.726;23.268;2023-03-03T03:13:02;5.32;;;3.50;;
22646;SDS011;11490;42.726;23.268;2023-03-03T03:15:27;4.60;;;3.60;;
22646;SDS011;11490;42.726;23.268;2023-03-03T03:17:53;4.57;;;4.13;;
22646;SDS011;11490;42.726;23.268;2023-03-03T03:20:18;5.40;;;3.80;;
22646;SDS011;11490;42.726;23.268;2023-03-03T03:22:44;5.28;;;4.70;;
22646;SDS011;11490;42.726;23.268;2023-03-03T03:25:09;5.68;;;3.92;;
22646;SDS011;11490;42.726;23.268;2023-03-03T03:27:34;5.78;;;4.25;;
22646;SDS011;11490;42.726;23.268;2023-03-03T03:30:00;5.13;;;4.20;;
22646;SDS011;11490;42.726;23.268;2023-03-03T03:32:25;4.43;;;3.63;;
22646;SDS011;11490;42.726;23.268;2023-03-03T03:34:51;6.25;;;4.03;;
22646;SDS011;11490;42.726;23.268;2023-03-03T03:37:16;7.20;;;4.53;;
22646;SDS011;11490;42.726;23.268;2023-03-03T03:39:41;4.82;;;3.83;;
22646;SDS011;11490;42.726;23.268;2023-03-03T03:42:07;4.78;;;4.15;;
22646;SDS011;11490;42.726;23.268;2023-03-03T03:44:32;4.40;;;3.70;;
22646;SDS011;11490;42.726;23.268;2023-03-03T03:46:58;5.20;;;3.67;;
22646;SDS011;11490;42.726;23.268;2023-03-03T03:49:23;6.32;;;4.50;;
22646;SDS011;11490;42.726;23.268;2023-03-03T03:51:48;5.72;;;4.30;;
22646;SDS011;11490;42.726;23.268;2023-03-03T03:54:14;8.07;;;4.72;;
22646;SDS011;11490;42.726;23.268;2023-03-03T03:56:39;5.45;;;3.90;;
22646;SDS011;11490;42.726;23.268;2023-03-03T03:59:05;6.28;;;4.05;;
22646;SDS011;11490;42.726;23.268;2023-03-03T04:01:31;5.47;;;3.67;;
22646;SDS011;11490;42.726;23.268;2023-03-03T04:03:57;7.20;;;5.07;;
22646;SDS011;11490;42.726;23.268;2023-03-03T04:06:23;4.95;;;3.50;;
22646;SDS011;11490;42.726;23.268;2023-03-03T04:08:48;5.90;;;4.57;;
22646;SDS011;11490;42.726;23.268;2023-03-03T04:11:14;8.32;;;4.68;;
22646;SDS011;11490;42.726;23.268;2023-03-03T04:13:39;7.75;;;4.25;;
22646;SDS011;11490;42.726;23.268;2023-03-03T04:16:04;7.38;;;4.60;;
22646;SDS011;11490;42.726;23.268;2023-03-03T04:18:30;7.45;;;5.47;;
22646;SDS011;11490;42.726;23.268;2023-03-03T04:20:55;8.35;;;5.28;;
22646;SDS011;11490;42.726;23.268;2023-03-03T04:23:21;8.70;;;5.65;;
22646;SDS011;11490;42.726;23.268;2023-03-03T04:25:46;7.47;;;4.88;;
22646;SDS011;11490;42.726;23.268;2023-03-03T04:28:13;7.25;;;5.15;;
22646;SDS011;11490;42.726;23.268;2023-03-03T04:30:39;7.85;;;5.78;;
22646;SDS011;11490;42.726;23.268;2023-03-03T04:33:04;8.38;;;5.15;;
22646;SDS011;11490;42.726;23.268;2023-03-03T04:35:30;7.93;;;5.50;;
22646;SDS011;11490;42.726;23.268;2023-03-03T04:37:55;8.05;;;5.55;;
22646;SDS011;11490;42.726;23.268;2023-03-03T04:40:21;6.22;;;5.32;;
22646;SDS011;11490;42.726;23.268;2023-03-03T04:42:46;6.55;;;5.63;;
22646;SDS011;11490;42.726;23.268;2023-03-03T04:45:11;7.65;;;6.38;;
22646;SDS011;11490;42.726;23.268;2023-03-03T04:47:37;8.13;;;5.20;;
22646;SDS011;11490;42.726;23.268;2023-03-03T04:50:03;6.55;;;5.13;;
22646;SDS011;11490;42.726;23.268;2023-03-03T04:52:28;9.95;;;5.72;;
22646;SDS011;11490;42.726;23.268;2023-03-03T04:54:54;6.43;;;5.70;;
22646;SDS011;11490;42.726;23.268;2023-03-03T04:57:20;10.15;;;5.80;;
22646;SDS011;11490;42.726;23.268;2023-03-03T04:59:45;10.77;;;6.07;;
22646;SDS011;11490;42.726;23.268;2023-03-03T05:02:10;9.88;;;5.63;;
22646;SDS011;11490;42.726;23.268;2023-03-03T05:04:37;7.15;;;5.88;;
22646;SDS011;11490;42.726;23.268;2023-03-03T05:07:03;8.50;;;5.53;;
22646;SDS011;11490;42.726;23.268;2023-03-03T05:09:28;7.00;;;5.65;;
22646;SDS011;11490;42.726;23.268;2023-03-03T05:11:54;10.00;;;6.38;;
22646;SDS011;11490;42.726;23.268;2023-03-03T05:14:19;8.32;;;5.63;;
22646;SDS011;11490;42.726;23.268;2023-03-03T05:16:45;8.77;;;6.07;;
22646;SDS011;11490;42.726;23.268;2023-03-03T05:19:11;12.20;;;5.78;;
22646;SDS011;11490;42.726;23.268;2023-03-03T05:21:37;7.32;;;5.43;;
22646;SDS011;11490;42.726;23.268;2023-03-03T05:24:06;7.57;;;5.68;;
22646;SDS011;11490;42.726;23.268;2023-03-03T05:26:32;11.90;;;6.88;;
22646;SDS011;11490;42.726;23.268;2023-03-03T05:28:58;10.45;;;6.28;;
22646;SDS011;11490;42.726;23.268;2023-03-03T05:31:23;12.02;;;6.18;;
22646;SDS011;11490;42.726;23.268;2023-03-03T05:33:51;8.68;;;6.70;;
22646;SDS011;11490;42.726;23.268;2023-03-03T05:36:16;13.13;;;6.35;;
22646;SDS011;11490;42.726;23.268;2023-03-03T05:38:42;13.77;;;8.02;;
22646;SDS011;11490;42.726;23.268;2023-03-03T05:41:07;14.32;;;8.25;;
22646;SDS011;11490;42.726;23.268;2023-03-03T05:43:33;13.07;;;7.30;;
22646;SDS011;11490;42.726;23.268;2023-03-03T05:45:58;9.95;;;6.88;;
22646;SDS011;11490;42.726;23.268;2023-03-03T05:48:23;8.88;;;6.90;;
22646;SDS011;11490;42.726;23.268;2023-03-03T05:50:49;18.45;;;9.73;;
22646;SDS011;11490;42.726;23.268;2023-03-03T05:53:15;14.63;;;8.73;;
22646;SDS011;11490;42.726;23.268;2023-03-03T05:55:43;10.93;;;6.45;;
22646;SDS011;11490;42.726;23.268;2023-03-03T05:58:09;12.85;;;8.23;;
22646;SDS011;11490;42.726;23.268;2023-03-03T06:00:36;12.23;;;7.38;;
22646;SDS011;11490;42.726;23.268;2023-03-03T06:03:01;11.68;;;7.45;;
22646;SDS011;11490;42.726;23.268;2023-03-03T06:05:28;9.70;;;7.25;;
22646;SDS011;11490;42.726;23.268;2023-03-03T06:07:53;10.18;;;6.95;;
22646;SDS011;11490;42.726;23.268;2023-03-03T06:10:18;10.95;;;7.18;;
22646;SDS011;11490;42.726;23.268;2023-03-03T06:12:44;12.75;;;6.78;;
22646;SDS011;11490;42.726;23.268;2023-03-03T06:15:09;12.43;;;7.07;;
22646;SDS011;11490;42.726;23.268;2023-03-03T06:17:35;12.05;;;7.07;;
22646;SDS011;11490;42.726;23.268;2023-03-03T06:20:00;11.40;;;6.65;;
22646;SDS011;11490;42.726;23.268;2023-03-03T06:22:26;10.48;;;6.72;;
22646;SDS011;11490;42.726;23.268;2023-03-03T06:24:51;11.80;;;6.78;;
22646;SDS011;11490;42.726;23.268;2023-03-03T06:27:17;8.85;;;6.20;;
22646;SDS011;11490;42.726;23.268;2023-03-03T06:29:43;10.65;;;6.18;;
22646;SDS011;11490;42.726;23.268;2023-03-03T06:32:09;10.10;;;5.97;;
22646;SDS011;11490;42.726;23.268;2023-03-03T06:34:34;9.35;;;6.40;;
22646;SDS011;11490;42.726;23.268;2023-03-03T06:37:00;8.57;;;5.80;;
22646;SDS011;11490;42.726;23.268;2023-03-03T06:39:25;7.88;;;5.72;;
22646;SDS011;11490;42.726;23.268;2023-03-03T06:41:50;10.05;;;7.32;;
22646;SDS011;11490;42.726;23.268;2023-03-03T06:44:16;13.55;;;7.68;;
22646;SDS011;11490;42.726;23.268;2023-03-03T06:46:41;9.13;;;6.25;;
22646;SDS011;11490;42.726;23.268;2023-03-03T06:49:06;12.90;;;7.00;;
22646;SDS011;11490;42.726;23.268;2023-03-03T06:51:33;8.10;;;6.15;;
22646;SDS011;11490;42.726;23.268;2023-03-03T06:56:58;9.07;;;6.57;;
22646;SDS011;11490;42.726;23.268;2023-03-03T06:59:28;7.28;;;5.38;;
22646;SDS011;11490;42.726;23.268;2023-03-03T07:01:53;12.15;;;7.30;;
22646;SDS011;11490;42.726;23.268;2023-03-03T07:04:28;10.43;;;6.50;;
22646;SDS011;11490;42.726;23.268;2023-03-03T07:06:59;14.35;;;7.95;;
22646;SDS011;11490;42.726;23.268;2023-03-03T07:09:32;11.57;;;6.50;;
22646;SDS011;11490;42.726;23.268;2023-03-03T07:12:02;11.15;;;6.60;;
22646;SDS011;11490;42.726;23.268;2023-03-03T07:14:34;9.98;;;7.10;;
22646;SDS011;11490;42.726;23.268;2023-03-03T07:17:08;11.57;;;7.20;;
22646;SDS011;11490;42.726;23.268;2023-03-03T07:19:52;9.20;;;6.75;;
22646;SDS011;11490;42.726;23.268;2023-03-03T07:22:19;9.77;;;6.72;;
22646;SDS011;11490;42.726;23.268;2023-03-03T07:24:48;8.90;;;5.82;;
22646;SDS011;11490;42.726;23.268;2023-03-03T07:29:49;14.30;;;7.28;;
22646;SDS011;11490;42.726;23.268;2023-03-03T07:35:51;10.38;;;6.78;;
22646;SDS011;11490;42.726;23.268;2023-03-03T07:37:54;10.35;;;7.72;;
22646;SDS011;11490;42.726;23.268;2023-03-03T07:42:57;21.48;;;11.27;;
22646;SDS011;11490;42.726;23.268;2023-03-03T07:45:27;19.15;;;9.45;;
22646;SDS011;11490;42.726;23.268;2023-03-03T07:48:18;10.48;;;8.38;;
22646;SDS011;11490;42.726;23.268;2023-03-03T07:50:53;8.95;;;6.80;;
22646;SDS011;11490;42.726;23.268;2023-03-03T07:53:28;18.80;;;10.40;;
22646;SDS011;11490;42.726;23.268;2023-03-03T07:55:59;81.30;;;36.28;;
22646;SDS011;11490;42.726;23.268;2023-03-03T08:01:28;12.80;;;8.18;;
22646;SDS011;11490;42.726;23.268;2023-03-03T08:04:07;23.88;;;13.52;;
22646;SDS011;11490;42.726;23.268;2023-03-03T08:06:51;19.58;;;11.40;;
22646;SDS011;11490;42.726;23.268;2023-03-03T08:14:54;16.55;;;9.25;;
22646;SDS011;11490;42.726;23.268;2023-03-03T08:17:23;8.75;;;6.57;;
22646;SDS011;11490;42.726;23.268;2023-03-03T08:19:53;9.23;;;6.07;;
22646;SDS011;11490;42.726;23.268;2023-03-03T08:22:32;7.30;;;6.28;;
22646;SDS011;11490;42.726;23.268;2023-03-03T08:25:02;9.93;;;6.60;;
22646;SDS011;11490;42.726;23.268;2023-03-03T08:27:28;13.73;;;8.82;;
22646;SDS011;11490;42.726;23.268;2023-03-03T08:29:53;12.13;;;8.45;;
22646;SDS011;11490;42.726;23.268;2023-03-03T08:32:19;15.25;;;8.43;;
22646;SDS011;11490;42.726;23.268;2023-03-03T08:34:47;15.30;;;10.23;;
22646;SDS011;11490;42.726;23.268;2023-03-03T08:37:15;14.45;;;9.88;;
22646;SDS011;11490;42.726;23.268;2023-03-03T08:39:45;15.13;;;9.23;;
22646;SDS011;11490;42.726;23.268;2023-03-03T08:42:10;15.68;;;8.52;;
22646;SDS011;11490;42.726;23.268;2023-03-03T08:44:36;17.38;;;10.52;;
22646;SDS011;11490;42.726;23.268;2023-03-03T08:47:01;14.95;;;9.07;;
22646;SDS011;11490;42.726;23.268;2023-03-03T08:49:27;14.65;;;9.05;;
22646;SDS011;11490;42.726;23.268;2023-03-03T08:51:52;10.45;;;7.68;;
22646;SDS011;11490;42.726;23.268;2023-03-03T08:54:18;17.10;;;9.13;;
22646;SDS011;11490;42.726;23.268;2023-03-03T08:56:43;20.33;;;12.27;;
22646;SDS011;11490;42.726;23.268;2023-03-03T08:59:09;13.02;;;8.43;;
22646;SDS011;11490;42.726;23.268;2023-03-03T09:01:37;17.38;;;10.35;;
22646;SDS011;11490;42.726;23.268;2023-03-03T09:04:03;14.88;;;10.00;;
22646;SDS011;11490;42.726;23.268;2023-03-03T09:06:28;13.30;;;8.93;;
22646;SDS011;11490;42.726;23.268;2023-03-03T09:08:54;13.02;;;10.07;;
22646;SDS011;11490;42.726;23.268;2023-03-03T09:11:22;12.68;;;7.55;;
22646;SDS011;11490;42.726;23.268;2023-03-03T09:19:32;13.65;;;9.00;;
22646;SDS011;11490;42.726;23.268;2023-03-03T09:22:02;14.23;;;6.68;;
22646;SDS011;11490;42.726;23.268;2023-03-03T09:24:42;10.63;;;6.43;;
22646;SDS011;11490;42.726;23.268;2023-03-03T09:27:14;16.05;;;8.70;;
22646;SDS011;11490;42.726;23.268;2023-03-03T09:29:43;11.20;;;7.25;;
22646;SDS011;11490;42.726;23.268;2023-03-03T09:35:24;13.50;;;8.07;;
22646;SDS011;11490;42.726;23.268;2023-03-03T09:37:54;9.98;;;6.80;;
22646;SDS011;11490;42.726;23.268;2023-03-03T09:40:31;12.10;;;7.50;;
22646;SDS011;11490;42.726;23.268;2023-03-03T09:43:14;12.10;;;6.28;;
22646;SDS011;11490;42.726;23.268;2023-03-03T09:45:47;7.93;;;5.55;;
22646;SDS011;11490;42.726;23.268;2023-03-03T09:48:38;8.88;;;6.13;;
22646;SDS011;11490;42.726;23.268;2023-03-03T09:54:20;11.40;;;7.05;;
22646;SDS011;11490;42.726;23.268;2023-03-03T09:57:01;9.07;;;6.68;;
22646;SDS011;11490;42.726;23.268;2023-03-03T10:04:57;12.18;;;7.43;;
22646;SDS011;11490;42.726;23.268;2023-03-03T10:10:20;11.00;;;6.75;;
22646;SDS011;11490;42.726;23.268;2023-03-03T10:15:50;13.38;;;8.55;;
22646;SDS011;11490;42.726;23.268;2023-03-03T10:18:38;12.55;;;6.68;;
22646;SDS011;11490;42.726;23.268;2023-03-03T10:21:10;10.05;;;7.00;;
22646;SDS011;11490;42.726;23.268;2023-03-03T10:32:06;12.25;;;7.80;;
22646;SDS011;11490;42.726;23.268;2023-03-03T10:34:51;13.80;;;7.15;;
22646;SDS011;11490;42.726;23.268;2023-03-03T10:51:06;10.13;;;6.57;;
22646;SDS011;11490;42.726;23.268;2023-03-03T10:56:53;15.25;;;9.07;;
22646;SDS011;11490;42.726;23.268;2023-03-03T11:02:11;10.38;;;6.75;;
22646;SDS011;11490;42.726;23.268;2023-03-03T11:07:41;10.80;;;7.43;;
22646;SDS011;11490;42.726;23.268;2023-03-03T11:18:14;14.10;;;8.45;;
22646;SDS011;11490;42.726;23.268;2023-03-03T11:20:58;10.13;;;6.88;;
22646;SDS011;11490;42.726;23.268;2023-03-03T11:23:54;8.63;;;7.20;;
22646;SDS011;11490;42.726;23.268;2023-03-03T11:37:07;14.95;;;8.32;;
22646;SDS011;11490;42.726;23.268;2023-03-03T11:39:36;10.68;;;7.30;;
22646;SDS011;11490;42.726;23.268;2023-03-03T11:42:22;12.07;;;8.00;;
22646;SDS011;11490;42.726;23.268;2023-03-03T11:44:55;11.55;;;7.63;;
22646;SDS011;11490;42.726;23.268;2023-03-03T11:53:12;13.10;;;8.48;;
22646;SDS011;11490;42.726;23.268;2023-03-03T11:55:51;11.80;;;7.72;;
22646;SDS011;11490;42.726;23.268;2023-03-03T12:01:25;9.55;;;6.45;;
22646;SDS011;11490;42.726;23.268;2023-03-03T12:09:34;14.25;;;7.97;;
22646;SDS011;11490;42.726;23.268;2023-03-03T12:12:14;9.48;;;7.00;;
22646;SDS011;11490;42.726;23.268;2023-03-03T12:14:48;10.13;;;7.32;;
22646;SDS011;11490;42.726;23.268;2023-03-03T12:20:22;11.20;;;6.97;;
22646;SDS011;11490;42.726;23.268;2023-03-03T12:25:45;5.95;;;4.57;;
22646;SDS011;11490;42.726;23.268;2023-03-03T12:28:21;9.05;;;5.78;;
22646;SDS011;11490;42.726;23.268;2023-03-03T12:36:31;11.05;;;7.45;;
22646;SDS011;11490;42.726;23.268;2023-03-03T12:39:04;8.80;;;5.13;;
22646;SDS011;11490;42.726;23.268;2023-03-03T12:45:35;9.43;;;6.75;;
22646;SDS011;11490;42.726;23.268;2023-03-03T12:47:49;9.50;;;6.00;;
22646;SDS011;11490;42.726;23.268;2023-03-03T12:50:37;12.98;;;6.50;;
22646;SDS011;11490;42.726;23.268;2023-03-03T12:56:03;9.50;;;6.22;;
22646;SDS011;11490;42.726;23.268;2023-03-03T13:01:51;6.78;;;5.28;;
22646;SDS011;11490;42.726;23.268;2023-03-03T13:09:54;7.38;;;5.57;;
22646;SDS011;11490;42.726;23.268;2023-03-03T13:12:31;6.82;;;4.95;;
22646;SDS011;11490;42.726;23.268;2023-03-03T13:23:29;8.55;;;5.32;;
22646;SDS011;11490;42.726;23.268;2023-03-03T13:33:43;6.50;;;4.18;;
22646;SDS011;11490;42.726;23.268;2023-03-03T13:39:27;6.68;;;3.97;;
22646;SDS011;11490;42.726;23.268;2023-03-03T13:44:30;6.93;;;3.90;;
22646;SDS011;11490;42.726;23.268;2023-03-03T13:49:54;7.50;;;5.05;;
22646;SDS011;11490;42.726;23.268;2023-03-03T13:52:25;5.68;;;4.32;;
22646;SDS011;11490;42.726;23.268;2023-03-03T13:55:02;7.70;;;5.03;;
22646;SDS011;11490;42.726;23.268;2023-03-03T14:06:06;6.13;;;4.55;;
22646;SDS011;11490;42.726;23.268;2023-03-03T14:08:41;6.65;;;4.47;;
22646;SDS011;11490;42.726;23.268;2023-03-03T14:17:10;5.82;;;4.68;;
22646;SDS011;11490;42.726;23.268;2023-03-03T14:25:07;7.25;;;5.45;;
22646;SDS011;11490;42.726;23.268;2023-03-03T14:33:07;7.18;;;5.43;;
22646;SDS011;11490;42.726;23.268;2023-03-03T14:43:36;5.50;;;4.68;;
22646;SDS011;11490;42.726;23.268;2023-03-03T14:48:51;4.55;;;3.83;;
22646;SDS011;11490;42.726;23.268;2023-03-03T14:51:24;7.68;;;4.45;;
22646;SDS011;11490;42.726;23.268;2023-03-03T14:53:53;9.35;;;6.43;;
22646;SDS011;11490;42.726;23.268;2023-03-03T14:56:21;9.88;;;6.45;;
22646;SDS011;11490;42.726;23.268;2023-03-03T14:59:11;5.70;;;4.75;;
22646;SDS011;11490;42.726;23.268;2023-03-03T15:01:42;5.20;;;4.30;;
22646;SDS011;11490;42.726;23.268;2023-03-03T15:12:21;4.97;;;3.63;;
22646;SDS011;11490;42.726;23.268;2023-03-03T15:15:01;5.57;;;4.00;;
22646;SDS011;11490;42.726;23.268;2023-03-03T15:17:34;6.53;;;4.72;;
22646;SDS011;11490;42.726;23.268;2023-03-03T15:20:03;8.07;;;5.28;;
22646;SDS011;11490;42.726;23.268;2023-03-03T15:22:55;6.47;;;5.32;;
22646;SDS011;11490;42.726;23.268;2023-03-03T15:25:27;4.90;;;4.18;;
22646;SDS011;11490;42.726;23.268;2023-03-03T15:28:21;6.28;;;5.00;;
22646;SDS011;11490;42.726;23.268;2023-03-03T15:33:58;4.78;;;4.28;;
22646;SDS011;11490;42.726;23.268;2023-03-03T15:42:13;7.30;;;4.72;;
22646;SDS011;11490;42.726;23.268;2023-03-03T15:50:28;4.97;;;3.45;;
22646;SDS011;11490;42.726;23.268;2023-03-03T15:58:59;5.13;;;4.18;;
22646;SDS011;11490;42.726;23.268;2023-03-03T16:01:34;5.90;;;4.68;;
22646;SDS011;11490;42.726;23.268;2023-03-03T16:04:04;6.65;;;4.63;;
22646;SDS011;11490;42.726;23.268;2023-03-03T16:09:18;11.25;;;5.05;;
22646;SDS011;11490;42.726;23.268;2023-03-03T16:11:50;11.95;;;6.38;;
22646;SDS011;11490;42.726;23.268;2023-03-03T16:25:19;28.42;;;14.48;;
22646;SDS011;11490;42.726;23.268;2023-03-03T16:30:31;30.73;;;14.20;;
22646;SDS011;11490;42.726;23.268;2023-03-03T16:33:20;25.63;;;12.25;;
22646;SDS011;11490;42.726;23.268;2023-03-03T16:35:54;23.75;;;10.95;;
22646;SDS011;11490;42.726;23.268;2023-03-03T16:40:59;9.75;;;7.18;;
22646;SDS011;11490;42.726;23.268;2023-03-03T16:46:19;6.90;;;5.43;;
22646;SDS011;11490;42.726;23.268;2023-03-03T16:48:59;6.45;;;4.70;;
22646;SDS011;11490;42.726;23.268;2023-03-03T16:51:29;6.75;;;5.38;;
22646;SDS011;11490;42.726;23.268;2023-03-03T16:54:07;7.20;;;6.30;;
22646;SDS011;11490;42.726;23.268;2023-03-03T16:56:45;7.00;;;5.30;;
22646;SDS011;11490;42.726;23.268;2023-03-03T17:02:13;7.90;;;5.75;;
22646;SDS011;11490;42.726;23.268;2023-03-03T17:04:53;6.78;;;5.55;;
22646;SDS011;11490;42.726;23.268;2023-03-03T17:07:45;8.07;;;5.32;;
22646;SDS011;11490;42.726;23.268;2023-03-03T17:21:13;10.65;;;7.35;;
22646;SDS011;11490;42.726;23.268;2023-03-03T17:30:09;14.27;;;8.38;;
22646;SDS011;11490;42.726;23.268;2023-03-03T17:32:47;14.82;;;9.23;;
22646;SDS011;11490;42.726;23.268;2023-03-03T17:43:53;7.20;;;5.57;;
22646;SDS011;11490;42.726;23.268;2023-03-03T17:57:06;12.75;;;8.20;;
22646;SDS011;11490;42.726;23.268;2023-03-03T18:00:11;14.02;;;8.25;;
22646;SDS011;11490;42.726;23.268;2023-03-03T18:02:38;9.48;;;6.22;;
22646;SDS011;11490;42.726;23.268;2023-03-03T18:19:28;14.27;;;8.10;;
22646;SDS011;11490;42.726;23.268;2023-03-03T18:22:11;14.15;;;8.57;;
22646;SDS011;11490;42.726;23.268;2023-03-03T18:37:54;10.48;;;6.35;;
22646;SDS011;11490;42.726;23.268;2023-03-03T18:40:26;9.82;;;6.30;;
22646;SDS011;11490;42.726;23.268;2023-03-03T18:42:54;10.15;;;6.45;;
22646;SDS011;11490;42.726;23.268;2023-03-03T18:47:58;10.73;;;7.32;;
22646;SDS011;11490;42.726;23.268;2023-03-03T18:50:44;11.88;;;6.57;;
22646;SDS011;11490;42.726;23.268;2023-03-03T18:55:45;11.95;;;7.22;;
22646;SDS011;11490;42.726;23.268;2023-03-03T19:00:41;6.32;;;5.72;;
22646;SDS011;11490;42.726;23.268;2023-03-03T19:03:22;7.20;;;5.43;;
22646;SDS011;11490;42.726;23.268;2023-03-03T19:06:27;6.32;;;4.78;;
22646;SDS011;11490;42.726;23.268;2023-03-03T19:17:57;9.43;;;5.78;;
22646;SDS011;11490;42.726;23.268;2023-03-03T19:20:25;5.22;;;4.50;;
22646;SDS011;11490;42.726;23.268;2023-03-03T19:23:22;5.88;;;4.53;;
22646;SDS011;11490;42.726;23.268;2023-03-03T19:29:00;7.97;;;5.10;;
22646;SDS011;11490;42.726;23.268;2023-03-03T19:39:57;6.28;;;3.95;;
22646;SDS011;11490;42.726;23.268;2023-03-03T19:50:53;20.40;;;8.48;;
22646;SDS011;11490;42.726;23.268;2023-03-03T19:53:26;12.35;;;7.32;;
22646;SDS011;11490;42.726;23.268;2023-03-03T20:12:24;7.40;;;5.38;;
22646;SDS011;11490;42.726;23.268;2023-03-03T20:17:43;15.77;;;9.00;;
22646;SDS011;11490;42.726;23.268;2023-03-03T20:23:20;19.33;;;12.13;;
22646;SDS011;11490;42.726;23.268;2023-03-03T20:31:31;7.60;;;5.15;;
22646;SDS011;11490;42.726;23.268;2023-03-03T20:42:51;13.35;;;6.28;;
22646;SDS011;11490;42.726;23.268;2023-03-03T20:45:36;7.57;;;5.22;;
22646;SDS011;11490;42.726;23.268;2023-03-03T20:56:38;8.13;;;5.85;;
22646;SDS011;11490;42.726;23.268;2023-03-03T20:59:17;14.90;;;8.80;;
22646;SDS011;11490;42.726;23.268;2023-03-03T21:01:52;11.75;;;9.10;;
22646;SDS011;11490;42.726;23.268;2023-03-03T21:04:26;44.92;;;24.10;;
22646;SDS011;11490;42.726;23.268;2023-03-03T21:06:54;23.63;;;14.73;;
22646;SDS011;11490;42.726;23.268;2023-03-03T21:09:24;14.07;;;7.60;;
22646;SDS011;11490;42.726;23.268;2023-03-03T21:11:51;15.23;;;9.80;;
22646;SDS011;11490;42.726;23.268;2023-03-03T21:16:47;52.65;;;28.52;;
22646;SDS011;11490;42.726;23.268;2023-03-03T21:19:22;81.88;;;39.20;;
22646;SDS011;11490;42.726;23.268;2023-03-03T21:21:53;31.33;;;17.27;;
22646;SDS011;11490;42.726;23.268;2023-03-03T21:24:19;15.45;;;9.43;;
22646;SDS011;11490;42.726;23.268;2023-03-03T21:26:46;11.70;;;8.38;;
22646;SDS011;11490;42.726;23.268;2023-03-03T21:29:41;23.25;;;11.52;;
22646;SDS011;11490;42.726;23.268;2023-03-03T21:32:08;10.15;;;7.30;;
22646;SDS011;11490;42.726;23.268;2023-03-03T21:34:34;11.95;;;8.05;;
22646;SDS011;11490;42.726;23.268;2023-03-03T21:37:03;11.50;;;7.30;;
22646;SDS011;11490;42.726;23.268;2023-03-03T21:39:34;10.00;;;6.60;;
22646;SDS011;11490;42.726;23.268;2023-03-03T21:42:10;10.55;;;7.30;;
22646;SDS011;11490;42.726;23.268;2023-03-03T21:44:40;9.57;;;6.43;;
22646;SDS011;11490;42.726;23.268;2023-03-03T21:47:14;9.18;;;6.22;;